createdAt,value
2023-09-27T00:00:38.062Z,18.9
2023-09-27T00:20:39.208Z,18.9
2023-09-27T00:40:36.512Z,18.8
2023-09-27T01:00:36.339Z,18.8
2023-09-27T01:20:37.479Z,18.7
2023-09-27T01:40:35.771Z,18.6
2023-09-27T02:00:35.276Z,18.6
2023-09-27T02:20:35.626Z,18.5
2023-09-27T02:40:35.856Z,18.5
2023-09-27T03:00:36.027Z,18.5
2023-09-27T03:20:37.294Z,18.6
2023-09-27T03:40:36.173Z,18.5
2023-09-27T04:00:35.712Z,18.4
2023-09-27T04:20:36.384Z,18.3
2023-09-27T04:40:35.930Z,18.3
2023-09-27T05:00:35.322Z,18.3
2023-09-27T05:21:01.231Z,18.2
2023-09-27T05:40:36.601Z,18.2
2023-09-27T06:00:35.671Z,18.2
2023-09-27T06:20:59.109Z,18.2
2023-09-27T06:40:55.955Z,18.2
2023-09-27T07:00:53.056Z,18.2
2023-09-27T07:20:52.342Z,18.2
2023-09-27T07:40:56.438Z,18.2
2023-09-27T08:00:54.327Z,18.2
2023-09-27T08:20:54.282Z,18.2
2023-09-27T08:40:55.081Z,18.2
2023-09-27T09:00:53.125Z,18.2
2023-09-27T09:20:57.601Z,18.2
2023-09-27T09:40:51.853Z,18.2
2023-09-27T10:00:54.428Z,18.3
2023-09-27T10:21:00.124Z,18.4
2023-09-27T10:40:55.909Z,18.4
2023-09-27T11:00:59.520Z,18.5
2023-09-27T11:20:53.862Z,18.4
2023-09-27T11:40:54.631Z,18.5
2023-09-27T12:00:55.124Z,18.7
2023-09-27T12:21:00.311Z,18.7
2023-09-27T12:40:50.830Z,18.8
2023-09-27T13:00:52.176Z,18.9
2023-09-27T13:21:13.892Z,19.1
2023-09-27T13:40:54.128Z,19.1
2023-09-27T14:00:49.612Z,19.2
2023-09-27T14:20:52.192Z,19.3
2023-09-27T14:40:53.688Z,19.5
2023-09-27T15:00:51.836Z,19.6
2023-09-27T15:20:54.460Z,19.9
2023-09-27T15:40:53.014Z,19.9
2023-09-27T16:00:58.875Z,20.3
2023-09-27T16:20:55.536Z,20.4
2023-09-27T16:40:57.246Z,20.3
2023-09-27T17:00:53.071Z,20.2
2023-09-27T17:20:52.156Z,20.2
2023-09-27T17:40:36.031Z,19.9
2023-09-27T18:00:35.215Z,19.9
2023-09-27T18:20:34.986Z,20.1
2023-09-27T18:40:35.854Z,20.1
2023-09-27T19:00:38.437Z,20.1
2023-09-27T19:20:36.149Z,20.1
2023-09-27T19:40:37.540Z,20.1
2023-09-27T20:00:36.486Z,20.1
2023-09-27T20:20:36.064Z,20.1
2023-09-27T20:40:35.309Z,20.1
2023-09-27T21:00:35.354Z,20.1
2023-09-27T21:20:34.880Z,20.1
2023-09-27T21:40:39.065Z,20
2023-09-27T22:00:43.312Z,20
2023-09-27T22:20:35.752Z,19.9
2023-09-27T22:40:35.384Z,19.9
2023-09-27T23:00:36.957Z,19.8
2023-09-27T23:20:38.401Z,19.7
2023-09-27T23:40:34.601Z,19.7
